Prichard, WV (25555)

4:32 PM EDT on June 03, 2015 (GMT -0400)
Tri-State / Ferguson | | Change Station
CLOSE
Current Station
Airport
Location: Huntington,
Elevation: 837 ft
Nearby Weather Stations

Elev 837 ft 38.37 °N, 82.56 °W | Updated 21 minutes ago

Overcast
Overcast
74 °F
Feels Like 74 °F
N
6
Wind Variable Wind from North

Today
High -- | Low -- °F
--% Chance of Precip.
Yesterday
High -- | Low -- °F
Precip. -- in
6:08 AM 8:49 PM
Full, 98% visible
Pressure 30.02 in
Visibility 10.0 miles
Clouds Scattered Clouds 2800 ft
Scattered Clouds 3600 ft
Dew Point 61 °F
Humidity 64%
Rainfall 0.00 in
Snow Depth Not available.
UV 6 out of 12
Pollen 4.70 out of 12
Air Quality Not available.
Flu Activity Sporadic
SPECI KHTS 032011Z 01005KT 10SM SCT028 SCT036 23/16 A3002 RMK AO2 T02330161

More Conditions Fewer Conditions

Pressure 30.02 in
Visibility 10.0 miles
Clouds Scattered Clouds 2800 ft
Scattered Clouds 3600 ft
Dew Point 61 °F
Humidity 64%
Rainfall 0.00 in
Snow Depth Not available.
UV 6 out of 12
Pollen 4.70 out of 12
Air Quality Not available.
Flu Activity Sporadic
SPECI KHTS 032011Z 01005KT 10SM SCT028 SCT036 23/16 A3002 RMK AO2 T02330161

More Conditions Fewer Conditions

10-Day Weather Forecast

×

Almanac

Astronomy

Jun. 03, 2015 Rise Set
Actual Time
Civil Twilight
Nautical Twilight
Astronomical Twilight
Moon
Length of Visible Light
Length of Day
Tomorrow will be .
, % of the Moon is Illuminated

Today's Extremes

State Highs State Lows

Community

WunderPhotos

Upload Photos

1,826,277 photos uploaded!

WunderBlogs® & News

Nearby

Air Quality

  Air Quality AQ Index Pollutant
Not available.

Snow Depth

Station Depth Elevation

Earthquake Activity

City Distance Mag. Time & Date
Minimum magnitude displayed is 2.5.

Coastal Water Temperatures

Place Temperature

Stations

Nearby Weather Stations

Station Location Temp. Windchill Dew Point Humidity Wind Precip. Elev Updated Type